East Port Orchard, Washington
Current Conditions -  °F | °C
As of 2:35 AM on Monday 22 Dec 2014 (Local Time) from KPWT Reporting Station
Clear Clear  
Wind Chill: 39°   Ceiling: Unl
Heat Index: 39°   Visibility: 9mi
Dew Point: 39°   Wind: 3mph
Humidity: 100%   Direction: 110°ESE
Pressure: 30.17"   Gusts: NA
Location:  47.5378°N, 122.589°W
Report Text: KPWT 221035Z AUTO 11003KT 9SM CLR 04/04 A3017 RMK AO1
Loading
Personal Weather Stations






























Interactive Weather Map New forecast layout! Learn more

10-Day Weather Forecast

Advertisements
Track Severe Weather on mobile